createdAt,value
2019-02-12T00:03:20.604Z,6.60
2019-02-12T00:08:24.316Z,6.67
2019-02-12T00:13:27.715Z,6.20
2019-02-12T00:18:31.057Z,6.30
2019-02-12T00:23:34.883Z,6.07
2019-02-12T00:28:37.955Z,6.70
2019-02-12T00:33:41.022Z,7.00
2019-02-12T00:38:44.422Z,6.47
2019-02-12T00:43:47.743Z,6.90
2019-02-12T00:48:50.827Z,7.50
2019-02-12T00:53:54.223Z,6.60
2019-02-12T00:58:57.614Z,7.13
2019-02-12T01:04:00.687Z,6.43
2019-02-12T01:09:04.788Z,6.73
2019-02-12T01:14:08.211Z,7.23
2019-02-12T01:19:12.132Z,6.17
2019-02-12T01:24:15.839Z,6.47
2019-02-12T01:29:18.918Z,5.80
2019-02-12T01:34:22.320Z,6.30
2019-02-12T01:39:25.391Z,6.70
2019-02-12T01:44:29.092Z,7.00
2019-02-12T01:49:32.166Z,7.67
2019-02-12T01:54:35.554Z,6.70
2019-02-12T01:59:38.963Z,7.10
2019-02-12T02:04:42.362Z,6.37
2019-02-12T02:09:45.763Z,6.50
2019-02-12T02:14:49.087Z,7.03
2019-02-12T02:19:52.590Z,6.33
2019-02-12T02:24:56.306Z,7.50
2019-02-12T02:29:59.733Z,7.23
2019-02-12T02:35:03.546Z,7.17
2019-02-12T02:40:08.121Z,7.20
2019-02-12T02:45:13.254Z,7.53
2019-02-12T02:50:16.330Z,6.90
2019-02-12T02:55:20.086Z,6.60
2019-02-12T03:00:23.806Z,7.17
2019-02-12T03:05:26.874Z,6.43
2019-02-12T03:10:30.276Z,7.23
2019-02-12T03:15:33.971Z,7.40
2019-02-12T03:20:37.099Z,6.80
2019-02-12T03:25:40.791Z,8.23
2019-02-12T03:30:44.777Z,8.57
2019-02-12T03:35:48.525Z,8.00
2019-02-12T03:40:51.845Z,7.43
2019-02-12T03:45:55.364Z,7.90
2019-02-12T03:50:58.907Z,8.50
2019-02-12T03:56:02.051Z,8.75
2019-02-12T04:01:05.347Z,8.60
2019-02-12T04:06:08.746Z,9.07
2019-02-12T04:11:11.873Z,8.53
2019-02-12T04:16:15.242Z,8.43
2019-02-12T04:21:18.947Z,9.23
2019-02-12T04:26:22.009Z,8.68
2019-02-12T04:31:25.696Z,8.87
2019-02-12T04:36:28.755Z,9.77
2019-02-12T04:41:32.986Z,10.20
2019-02-12T04:46:36.342Z,9.85
2019-02-12T04:51:40.068Z,10.60
2019-02-12T04:56:43.467Z,10.50
2019-02-12T05:01:47.194Z,10.87
2019-02-12T05:06:50.275Z,10.70
2019-02-12T05:11:53.599Z,12.10
2019-02-12T05:16:56.940Z,11.70
2019-02-12T05:22:00.647Z,12.43
2019-02-12T05:27:04.364Z,12.33
2019-02-12T05:32:07.432Z,12.30
2019-02-12T05:37:11.100Z,12.87
2019-02-12T05:42:14.433Z,12.50
2019-02-12T05:47:17.506Z,12.20
2019-02-12T05:52:20.836Z,12.33
2019-02-12T05:57:24.249Z,12.57
2019-02-12T06:02:27.566Z,14.47
2019-02-12T06:07:30.979Z,12.17
2019-02-12T06:12:34.394Z,13.67
2019-02-12T06:17:38.105Z,13.30
2019-02-12T06:22:41.732Z,14.60
2019-02-12T06:27:45.148Z,14.00
2019-02-12T06:32:48.223Z,14.97
2019-02-12T06:37:51.295Z,15.33
2019-02-12T06:42:54.950Z,15.60
2019-02-12T06:47:58.296Z,14.33
2019-02-12T06:53:02.019Z,14.07
2019-02-12T06:58:05.435Z,14.37
2019-02-12T07:03:10.044Z,14.27
2019-02-12T07:08:37.590Z,14.33
2019-02-12T07:13:50.074Z,13.80
2019-02-12T07:19:17.632Z,14.23
2019-02-12T07:24:35.858Z,13.57
2019-02-12T07:29:45.276Z,14.20
2019-02-12T07:34:50.240Z,13.20
2019-02-12T07:39:57.602Z,13.10
2019-02-12T07:45:31.581Z,11.87
2019-02-12T07:51:10.190Z,12.90
2019-02-12T07:56:24.016Z,12.63
2019-02-12T08:01:46.970Z,12.07
2019-02-12T08:06:56.241Z,11.70
2019-02-12T08:12:23.779Z,12.65
2019-02-12T08:17:28.390Z,12.37
2019-02-12T08:22:35.695Z,12.30
2019-02-12T08:27:40.316Z,12.13
2019-02-12T08:33:03.468Z,11.77
2019-02-12T08:38:41.985Z,11.43
2019-02-12T08:43:52.587Z,11.40
2019-02-12T08:49:10.982Z,11.50
2019-02-12T08:54:39.937Z,10.90
2019-02-12T08:59:46.663Z,10.77
2019-02-12T09:04:54.006Z,10.43
2019-02-12T09:10:10.982Z,10.30
2019-02-12T09:15:54.178Z,10.27
2019-02-12T09:21:02.196Z,10.87
2019-02-12T09:26:08.931Z,10.50
2019-02-12T09:31:30.688Z,10.20
2019-02-12T09:36:50.694Z,10.30
2019-02-12T09:42:07.623Z,9.00
2019-02-12T09:47:14.434Z,9.87
2019-02-12T09:52:49.759Z,9.40
2019-02-12T09:57:57.342Z,9.70
2019-02-12T10:03:09.446Z,8.53
2019-02-12T10:08:19.270Z,17.67
2019-02-12T10:13:32.955Z,9.17
2019-02-12T10:18:37.571Z,9.00
2019-02-12T10:23:45.010Z,9.00
2019-02-12T10:28:54.353Z,9.33
2019-02-12T10:33:57.502Z,8.70
2019-02-12T10:39:00.873Z,9.57
2019-02-12T10:44:04.648Z,9.90
2019-02-12T10:49:08.298Z,11.07
2019-02-12T10:54:13.489Z,9.33
2019-02-12T10:59:16.505Z,10.23
2019-02-12T11:04:21.584Z,10.27
2019-02-12T11:09:25.447Z,9.70
2019-02-12T11:14:28.772Z,10.60
2019-02-12T11:19:32.074Z,9.73
2019-02-12T11:24:35.878Z,9.37
2019-02-12T11:29:39.616Z,8.93
2019-02-12T11:34:42.952Z,8.80
2019-02-12T11:39:46.028Z,8.50
2019-02-12T11:44:49.170Z,7.63
2019-02-12T11:49:52.820Z,7.87
2019-02-12T11:54:55.891Z,7.50
2019-02-12T11:59:59.595Z,8.13
2019-02-12T12:05:03.308Z,7.60
2019-02-12T12:10:10.121Z,7.37
2019-02-12T12:15:14.078Z,7.40
2019-02-12T12:20:17.155Z,7.23
2019-02-12T12:25:20.868Z,7.23
2019-02-12T12:30:24.603Z,7.67
2019-02-12T12:35:27.995Z,6.30
2019-02-12T12:40:31.066Z,6.13
2019-02-12T12:45:34.213Z,5.37
2019-02-12T12:50:37.638Z,5.63
2019-02-12T12:55:40.716Z,5.40
2019-02-12T13:00:44.094Z,4.87
2019-02-12T13:05:47.478Z,5.10
2019-02-12T13:10:50.946Z,4.60
2019-02-12T13:15:54.314Z,5.23
2019-02-12T13:20:57.767Z,4.30
2019-02-12T13:26:00.834Z,3.93
2019-02-12T13:31:04.176Z,3.13
2019-02-12T13:36:07.552Z,3.37
2019-02-12T13:41:10.946Z,3.40
2019-02-12T13:46:14.275Z,2.90
2019-02-12T13:51:17.677Z,3.57
2019-02-12T13:56:21.179Z,3.43
2019-02-12T14:01:24.255Z,3.07
2019-02-12T14:06:27.930Z,2.70
2019-02-12T14:11:31.010Z,3.37
2019-02-12T14:16:34.073Z,2.53
2019-02-12T14:21:37.143Z,3.17
2019-02-12T14:26:40.569Z,2.97
2019-02-12T14:31:52.609Z,3.13
2019-02-12T14:36:48.754Z,2.60
2019-02-12T14:41:53.702Z,2.80
2019-02-12T14:46:57.097Z,2.27
2019-02-12T14:52:00.408Z,2.97
2019-02-12T14:57:04.119Z,3.83
2019-02-12T15:02:07.750Z,2.87
2019-02-12T15:07:11.559Z,2.63
2019-02-12T15:12:14.634Z,2.50
2019-02-12T15:17:17.990Z,2.67
2019-02-12T15:22:21.301Z,2.27
2019-02-12T15:27:24.698Z,2.83
2019-02-12T15:32:28.033Z,2.07
2019-02-12T15:37:31.106Z,3.53
2019-02-12T15:42:34.453Z,3.20
2019-02-12T15:47:37.568Z,2.67
2019-02-12T15:52:40.634Z,2.70
2019-02-12T15:57:45.952Z,8.87
2019-02-12T16:02:49.176Z,7.43
2019-02-12T16:07:52.592Z,3.40
2019-02-12T16:12:55.649Z,3.20
2019-02-12T16:18:00.217Z,3.20
2019-02-12T16:23:04.427Z,3.23
2019-02-12T16:28:08.152Z,3.30
2019-02-12T16:33:11.554Z,3.27
2019-02-12T16:38:14.901Z,2.60
2019-02-12T16:43:18.191Z,3.00
2019-02-12T16:48:21.511Z,2.90
2019-02-12T16:53:24.935Z,2.83
2019-02-12T16:58:28.355Z,6.67
2019-02-12T17:03:31.762Z,4.80
2019-02-12T17:08:35.462Z,7.00
2019-02-12T17:13:38.869Z,11.60
2019-02-12T17:18:42.282Z,4.12
2019-02-12T17:23:46.019Z,3.90
2019-02-12T17:28:49.343Z,4.23
2019-02-12T17:33:52.742Z,4.43
2019-02-12T17:38:56.066Z,6.13
2019-02-12T17:43:59.470Z,5.67
2019-02-12T17:49:03.191Z,6.67
2019-02-12T17:54:06.608Z,5.97
2019-02-12T17:59:09.934Z,6.67
2019-02-12T18:04:13.001Z,6.70
2019-02-12T18:09:16.083Z,6.20
2019-02-12T18:14:19.473Z,5.93
2019-02-12T18:19:22.550Z,5.40
2019-02-12T18:24:25.615Z,5.47
2019-02-12T18:29:29.009Z,5.60
2019-02-12T18:34:32.086Z,6.45
2019-02-12T18:39:35.427Z,6.80
2019-02-12T18:44:38.827Z,5.47
2019-02-12T18:49:42.539Z,5.70
2019-02-12T18:54:45.606Z,7.10
2019-02-12T18:59:49.000Z,8.00
2019-02-12T19:04:52.438Z,7.90
2019-02-12T19:09:55.749Z,6.67
2019-02-12T19:14:59.085Z,6.27
2019-02-12T19:20:02.822Z,5.80
2019-02-12T19:25:09.059Z,6.00
2019-02-12T19:30:16.742Z,5.60
2019-02-12T19:35:19.812Z,4.97
2019-02-12T19:40:23.540Z,5.33
2019-02-12T19:45:26.860Z,5.50
2019-02-12T19:50:30.254Z,6.00
2019-02-12T19:55:33.988Z,5.97
2019-02-12T20:00:37.318Z,5.90
2019-02-12T20:05:40.722Z,5.43
2019-02-12T20:10:44.149Z,5.70
2019-02-12T20:15:47.872Z,6.50
2019-02-12T20:20:50.933Z,5.40
2019-02-12T20:25:54.388Z,5.03
2019-02-12T20:30:57.431Z,5.33
2019-02-12T20:36:00.494Z,4.93
2019-02-12T20:41:03.559Z,5.17
2019-02-12T20:46:06.946Z,4.83
2019-02-12T20:51:10.013Z,4.50
2019-02-12T20:56:13.084Z,4.97
2019-02-12T21:01:16.522Z,5.10
2019-02-12T21:06:19.918Z,5.43
2019-02-12T21:11:23.571Z,6.12
2019-02-12T21:16:26.991Z,6.33
2019-02-12T21:21:30.038Z,5.57
2019-02-12T21:26:33.426Z,5.20
2019-02-12T21:31:36.842Z,5.23
2019-02-12T21:36:40.543Z,5.33
2019-02-12T21:41:44.281Z,6.30
2019-02-12T21:46:47.678Z,5.67
2019-02-12T21:51:50.809Z,5.67
2019-02-12T21:56:53.918Z,8.90
2019-02-12T22:01:57.360Z,10.33
2019-02-12T22:07:00.842Z,10.83
2019-02-12T22:12:04.157Z,12.03
2019-02-12T22:17:07.606Z,12.40
2019-02-12T22:22:11.280Z,13.43
2019-02-12T22:27:14.353Z,13.13
2019-02-12T22:32:18.115Z,13.00
2019-02-12T22:37:21.763Z,13.78
2019-02-12T22:42:25.163Z,13.83
2019-02-12T22:47:28.900Z,13.30
2019-02-12T22:52:32.300Z,12.83
2019-02-12T22:57:35.702Z,14.10
2019-02-12T23:02:39.098Z,13.00
2019-02-12T23:07:42.835Z,13.28
2019-02-12T23:12:46.239Z,12.67
2019-02-12T23:17:49.309Z,13.13
2019-02-12T23:22:52.976Z,13.37
2019-02-12T23:27:57.723Z,12.87
2019-02-12T23:33:01.655Z,13.17
2019-02-12T23:38:04.726Z,14.13
2019-02-12T23:43:08.379Z,13.00
2019-02-12T23:48:11.708Z,13.23
2019-02-12T23:53:15.411Z,13.10
2019-02-12T23:58:18.487Z,12.43
